EZY353 EGKK-EGJJ
Flight info
| Callsign | EZY353 |
|---|---|
| Flight time | 0h 34m |
| Altitude | 26000 |
| Route | IMVUR N63 LELNA |
| Aircraft | A320/M-SDE3FGHIRWY/LB1 |
Departure
| Time | 2026-05-05 17:47 |
|---|---|
| Airport | London Gatwick Airport (EGKK) |
Arrival
| Time | 2026-05-05 18:21 |
|---|---|
| Airport | Jersey Airport (EGJJ) |
| Time | Latitude | Longitude | Altitude | Speed | Heading |
|---|---|---|---|---|---|
| 2026-05-05 17:06 | 51.15885 | -0.17315 | 206 ft | 0 kts | 348° |
| 2026-05-05 17:27 | 51.15856 | -0.17304 | 213 ft | 3 kts | 343° |
| 2026-05-05 17:27 | 51.15854 | -0.17301 | 213 ft | 0 kts | 4° |
| 2026-05-05 17:31 | 51.15852 | -0.17301 | 212 ft | 3 kts | 5° |
| 2026-05-05 17:31 | 51.15808 | -0.17248 | 213 ft | 10 kts | 267° |
| 2026-05-05 17:31 | 51.15808 | -0.17237 | 215 ft | 0 kts | 258° |
| 2026-05-05 17:32 | 51.15797 | -0.17305 | 204 ft | 13 kts | 251° |
| 2026-05-05 17:33 | 51.15772 | -0.17434 | 208 ft | 12 kts | 255° |
| 2026-05-05 17:33 | 51.15752 | -0.17555 | 208 ft | 11 kts | 257° |
| 2026-05-05 17:33 | 51.15738 | -0.17669 | 212 ft | 10 kts | 259° |
| 2026-05-05 17:33 | 51.15724 | -0.17779 | 204 ft | 10 kts | 257° |
| 2026-05-05 17:34 | 51.15709 | -0.17882 | 204 ft | 9 kts | 257° |
| 2026-05-05 17:34 | 51.15695 | -0.17979 | 204 ft | 9 kts | 258° |
| 2026-05-05 17:34 | 51.15683 | -0.18070 | 204 ft | 8 kts | 258° |
| 2026-05-05 17:34 | 51.15672 | -0.18155 | 209 ft | 8 kts | 257° |
| 2026-05-05 17:35 | 51.15661 | -0.18234 | 212 ft | 7 kts | 258° |
| 2026-05-05 17:35 | 51.15650 | -0.18306 | 207 ft | 6 kts | 249° |
| 2026-05-05 17:35 | 51.15607 | -0.18348 | 204 ft | 9 kts | 189° |
| 2026-05-05 17:35 | 51.15551 | -0.18334 | 204 ft | 8 kts | 168° |
| 2026-05-05 17:36 | 51.15501 | -0.18316 | 212 ft | 7 kts | 167° |
| 2026-05-05 17:36 | 51.15456 | -0.18299 | 213 ft | 6 kts | 167° |
| 2026-05-05 17:36 | 51.15411 | -0.18283 | 204 ft | 7 kts | 167° |
| 2026-05-05 17:36 | 51.15365 | -0.18267 | 209 ft | 7 kts | 167° |
| 2026-05-05 17:37 | 51.15316 | -0.18248 | 215 ft | 7 kts | 166° |
| 2026-05-05 17:37 | 51.15272 | -0.18232 | 206 ft | 7 kts | 167° |
| 2026-05-05 17:37 | 51.15205 | -0.18238 | 209 ft | 11 kts | 216° |
| 2026-05-05 17:37 | 51.15184 | -0.18344 | 210 ft | 10 kts | 260° |
| 2026-05-05 17:38 | 51.15170 | -0.18450 | 209 ft | 10 kts | 257° |
| 2026-05-05 17:38 | 51.15154 | -0.18559 | 210 ft | 14 kts | 257° |
| 2026-05-05 17:38 | 51.15132 | -0.18711 | 203 ft | 14 kts | 257° |
| 2026-05-05 17:38 | 51.15112 | -0.18853 | 214 ft | 13 kts | 258° |
| 2026-05-05 17:39 | 51.15094 | -0.18984 | 206 ft | 11 kts | 257° |
| 2026-05-05 17:39 | 51.15078 | -0.19101 | 206 ft | 10 kts | 257° |
| 2026-05-05 17:39 | 51.15062 | -0.19210 | 204 ft | 10 kts | 253° |
| 2026-05-05 17:39 | 51.15020 | -0.19269 | 211 ft | 7 kts | 182° |
| 2026-05-05 17:40 | 51.14975 | -0.19285 | 215 ft | 13 kts | 215° |
| 2026-05-05 17:40 | 51.14937 | -0.19464 | 214 ft | 18 kts | 258° |
| 2026-05-05 17:40 | 51.14912 | -0.19653 | 214 ft | 17 kts | 258° |
| 2026-05-05 17:40 | 51.14889 | -0.19826 | 207 ft | 16 kts | 257° |
| 2026-05-05 17:41 | 51.14864 | -0.19998 | 204 ft | 16 kts | 257° |
| 2026-05-05 17:41 | 51.14841 | -0.20167 | 213 ft | 16 kts | 258° |
| 2026-05-05 17:41 | 51.14818 | -0.20335 | 206 ft | 15 kts | 257° |
| 2026-05-05 17:41 | 51.14796 | -0.20491 | 208 ft | 15 kts | 257° |
| 2026-05-05 17:42 | 51.14772 | -0.20647 | 203 ft | 14 kts | 256° |
| 2026-05-05 17:42 | 51.14752 | -0.20797 | 214 ft | 13 kts | 259° |
| 2026-05-05 17:42 | 51.14734 | -0.20928 | 206 ft | 11 kts | 257° |
| 2026-05-05 17:42 | 51.14717 | -0.21046 | 206 ft | 11 kts | 257° |
| 2026-05-05 17:43 | 51.14702 | -0.21158 | 204 ft | 10 kts | 259° |
| 2026-05-05 17:43 | 51.14690 | -0.21261 | 207 ft | 9 kts | 259° |
| 2026-05-05 17:43 | 51.14652 | -0.21328 | 208 ft | 8 kts | 194° |
| 2026-05-05 17:43 | 51.14619 | -0.21327 | 204 ft | 0 kts | 170° |
| 2026-05-05 17:44 | 51.14619 | -0.21326 | 204 ft | 0 kts | 170° |
| 2026-05-05 17:44 | 51.14618 | -0.21326 | 204 ft | 1 kts | 170° |
| 2026-05-05 17:44 | 51.14546 | -0.21273 | 207 ft | 17 kts | 138° |
| 2026-05-05 17:45 | 51.14526 | -0.21120 | 214 ft | 13 kts | 78° |
| 2026-05-05 17:45 | 51.14531 | -0.21082 | 207 ft | 0 kts | 77° |
| 2026-05-05 17:46 | 51.14565 | -0.20840 | 205 ft | 66 kts | 77° |
| 2026-05-05 17:46 | 51.14732 | -0.19634 | 213 ft | 153 kts | 78° |
| 2026-05-05 17:46 | 51.14993 | -0.17707 | 605 ft | 194 kts | 78° |
| 2026-05-05 17:47 | 51.15308 | -0.15398 | 1232 ft | 231 kts | 77° |
| 2026-05-05 17:47 | 51.15660 | -0.12835 | 2161 ft | 233 kts | 77° |
| 2026-05-05 17:47 | 51.15994 | -0.10403 | 3486 ft | 225 kts | 76° |
| 2026-05-05 17:47 | 51.16341 | -0.07890 | 4404 ft | 233 kts | 75° |
| 2026-05-05 17:48 | 51.17098 | -0.05624 | 5239 ft | 233 kts | 39° |
| 2026-05-05 17:48 | 51.18554 | -0.04621 | 6264 ft | 231 kts | 4° |
| 2026-05-05 17:48 | 51.20155 | -0.04817 | 7196 ft | 232 kts | 348° |
| 2026-05-05 17:48 | 51.21688 | -0.05684 | 8067 ft | 238 kts | 323° |
| 2026-05-05 17:49 | 51.22657 | -0.07785 | 8894 ft | 248 kts | 290° |
| 2026-05-05 17:49 | 51.22788 | -0.10661 | 9345 ft | 276 kts | 264° |
| 2026-05-05 17:49 | 51.22484 | -0.13804 | 10075 ft | 287 kts | 261° |
| 2026-05-05 17:49 | 51.22098 | -0.16925 | 10870 ft | 293 kts | 259° |
| 2026-05-05 17:50 | 51.21661 | -0.20147 | 11582 ft | 306 kts | 256° |
| 2026-05-05 17:50 | 51.21007 | -0.23523 | 11919 ft | 329 kts | 252° |
| 2026-05-05 17:50 | 51.20237 | -0.27039 | 12536 ft | 341 kts | 251° |
| 2026-05-05 17:50 | 51.19409 | -0.30622 | 13298 ft | 347 kts | 250° |
| 2026-05-05 17:51 | 51.18562 | -0.34248 | 14076 ft | 352 kts | 250° |
| 2026-05-05 17:51 | 51.17703 | -0.37943 | 14834 ft | 356 kts | 250° |
| 2026-05-05 17:51 | 51.16862 | -0.41614 | 15583 ft | 359 kts | 251° |
| 2026-05-05 17:51 | 51.16012 | -0.45377 | 16318 ft | 362 kts | 251° |
| 2026-05-05 17:52 | 51.15159 | -0.49181 | 17039 ft | 366 kts | 251° |
| 2026-05-05 17:52 | 51.14295 | -0.53032 | 17697 ft | 370 kts | 251° |
| 2026-05-05 17:52 | 51.13425 | -0.56896 | 17897 ft | 370 kts | 251° |
| 2026-05-05 17:52 | 51.12562 | -0.60725 | 17943 ft | 364 kts | 251° |
| 2026-05-05 17:53 | 51.11706 | -0.64509 | 17943 ft | 362 kts | 251° |
| 2026-05-05 17:53 | 51.10849 | -0.68274 | 17943 ft | 362 kts | 251° |
| 2026-05-05 17:53 | 51.09989 | -0.72037 | 17943 ft | 361 kts | 251° |
| 2026-05-05 17:53 | 51.09130 | -0.75791 | 17939 ft | 361 kts | 251° |
| 2026-05-05 17:54 | 51.08268 | -0.79553 | 17942 ft | 361 kts | 251° |
| 2026-05-05 17:54 | 51.07417 | -0.83265 | 17942 ft | 361 kts | 251° |
| 2026-05-05 17:54 | 51.06559 | -0.87015 | 17941 ft | 361 kts | 251° |
| 2026-05-05 17:54 | 51.05696 | -0.90773 | 17943 ft | 361 kts | 251° |
| 2026-05-05 17:55 | 51.04834 | -0.94512 | 17942 ft | 361 kts | 251° |
| 2026-05-05 17:55 | 51.03963 | -0.98277 | 17940 ft | 361 kts | 250° |
| 2026-05-05 17:55 | 51.03093 | -1.02018 | 17942 ft | 361 kts | 250° |
| 2026-05-05 17:55 | 51.02221 | -1.05771 | 17944 ft | 361 kts | 250° |
| 2026-05-05 17:56 | 51.01355 | -1.09516 | 17943 ft | 362 kts | 250° |
| 2026-05-05 17:56 | 51.00487 | -1.13267 | 17945 ft | 362 kts | 250° |
| 2026-05-05 17:56 | 50.99619 | -1.17016 | 17950 ft | 361 kts | 250° |
| 2026-05-05 17:56 | 50.98748 | -1.20761 | 17951 ft | 361 kts | 250° |
| 2026-05-05 17:57 | 50.97873 | -1.24501 | 17950 ft | 362 kts | 250° |
| 2026-05-05 17:57 | 50.96989 | -1.28243 | 17949 ft | 362 kts | 248° |
| 2026-05-05 17:57 | 50.95816 | -1.31710 | 17951 ft | 362 kts | 235° |
| 2026-05-05 17:57 | 50.94182 | -1.34741 | 17947 ft | 362 kts | 223° |
| 2026-05-05 17:58 | 50.92184 | -1.37145 | 17944 ft | 362 kts | 210° |
| 2026-05-05 17:58 | 50.89943 | -1.38983 | 17944 ft | 362 kts | 206° |
| 2026-05-05 17:58 | 50.87687 | -1.40764 | 17946 ft | 362 kts | 206° |
| 2026-05-05 17:58 | 50.85435 | -1.42550 | 17945 ft | 362 kts | 206° |
| 2026-05-05 17:59 | 50.83177 | -1.44348 | 17934 ft | 363 kts | 206° |
| 2026-05-05 17:59 | 50.80918 | -1.46155 | 17931 ft | 363 kts | 207° |
| 2026-05-05 17:59 | 50.78663 | -1.47956 | 17932 ft | 363 kts | 206° |
| 2026-05-05 17:59 | 50.76405 | -1.49752 | 17931 ft | 364 kts | 206° |
| 2026-05-05 18:00 | 50.74141 | -1.51548 | 17930 ft | 364 kts | 206° |
| 2026-05-05 18:00 | 50.71906 | -1.53317 | 17934 ft | 364 kts | 206° |
| 2026-05-05 18:00 | 50.69639 | -1.55111 | 17937 ft | 364 kts | 206° |
| 2026-05-05 18:00 | 50.67368 | -1.56905 | 17931 ft | 364 kts | 206° |
| 2026-05-05 18:01 | 50.65103 | -1.58696 | 17932 ft | 364 kts | 206° |
| 2026-05-05 18:01 | 50.62841 | -1.60484 | 17936 ft | 364 kts | 206° |
| 2026-05-05 18:01 | 50.60569 | -1.62279 | 17929 ft | 364 kts | 206° |
| 2026-05-05 18:01 | 50.58302 | -1.64064 | 17929 ft | 364 kts | 206° |
| 2026-05-05 18:02 | 50.56034 | -1.65848 | 17930 ft | 364 kts | 206° |
| 2026-05-05 18:02 | 50.53770 | -1.67626 | 17933 ft | 364 kts | 206° |
| 2026-05-05 18:02 | 50.51507 | -1.69399 | 17933 ft | 364 kts | 206° |
| 2026-05-05 18:02 | 50.49262 | -1.71153 | 17934 ft | 364 kts | 206° |
| 2026-05-05 18:03 | 50.46992 | -1.72926 | 17935 ft | 364 kts | 206° |
| 2026-05-05 18:03 | 50.44727 | -1.74696 | 17936 ft | 364 kts | 206° |
| 2026-05-05 18:03 | 50.42461 | -1.76466 | 17936 ft | 364 kts | 206° |
| 2026-05-05 18:03 | 50.40189 | -1.78243 | 17940 ft | 364 kts | 206° |
| 2026-05-05 18:04 | 50.37927 | -1.80013 | 17934 ft | 364 kts | 206° |
| 2026-05-05 18:04 | 50.35655 | -1.81788 | 17930 ft | 364 kts | 206° |
| 2026-05-05 18:04 | 50.33385 | -1.83560 | 17929 ft | 365 kts | 206° |
| 2026-05-05 18:04 | 50.31113 | -1.85329 | 17927 ft | 365 kts | 206° |
| 2026-05-05 18:05 | 50.28839 | -1.87093 | 17928 ft | 365 kts | 206° |
| 2026-05-05 18:05 | 50.26560 | -1.88856 | 17929 ft | 365 kts | 206° |
| 2026-05-05 18:05 | 50.24284 | -1.90616 | 17930 ft | 365 kts | 206° |
| 2026-05-05 18:05 | 50.22001 | -1.92379 | 17932 ft | 365 kts | 206° |
| 2026-05-05 18:06 | 50.20490 | -1.93545 | 17933 ft | 365 kts | 206° |
| 2026-05-05 18:06 | 50.18977 | -1.94712 | 17934 ft | 365 kts | 206° |
| 2026-05-05 18:06 | 50.15927 | -1.97064 | 17937 ft | 366 kts | 206° |
| 2026-05-05 18:06 | 50.13640 | -1.98829 | 17935 ft | 366 kts | 206° |
| 2026-05-05 18:07 | 50.11353 | -2.00591 | 17933 ft | 366 kts | 206° |
| 2026-05-05 18:07 | 50.09096 | -2.02327 | 17936 ft | 366 kts | 206° |
| 2026-05-05 18:07 | 50.06809 | -2.04086 | 17937 ft | 366 kts | 206° |
| 2026-05-05 18:07 | 50.04521 | -2.05843 | 17938 ft | 367 kts | 206° |
| 2026-05-05 18:08 | 50.02228 | -2.07598 | 17942 ft | 367 kts | 206° |
| 2026-05-05 18:08 | 49.99934 | -2.09353 | 17944 ft | 367 kts | 206° |
| 2026-05-05 18:08 | 49.97569 | -2.10838 | 17945 ft | 366 kts | 195° |
| 2026-05-05 18:08 | 49.95089 | -2.11742 | 17949 ft | 366 kts | 191° |
| 2026-05-05 18:09 | 49.92601 | -2.12583 | 17945 ft | 366 kts | 191° |
| 2026-05-05 18:09 | 49.90112 | -2.13429 | 17960 ft | 366 kts | 191° |
| 2026-05-05 18:09 | 49.87620 | -2.14277 | 17961 ft | 367 kts | 191° |
| 2026-05-05 18:09 | 49.85122 | -2.15129 | 17962 ft | 367 kts | 191° |
| 2026-05-05 18:10 | 49.82622 | -2.15983 | 17966 ft | 367 kts | 191° |
| 2026-05-05 18:10 | 49.80128 | -2.16832 | 17972 ft | 368 kts | 191° |
| 2026-05-05 18:10 | 49.77629 | -2.17684 | 17977 ft | 368 kts | 192° |
| 2026-05-05 18:10 | 49.75132 | -2.18536 | 17873 ft | 364 kts | 191° |
| 2026-05-05 18:11 | 49.72685 | -2.19368 | 17604 ft | 357 kts | 191° |
| 2026-05-05 18:11 | 49.70252 | -2.20211 | 17344 ft | 355 kts | 193° |
| 2026-05-05 18:11 | 49.67882 | -2.21165 | 17081 ft | 353 kts | 195° |
| 2026-05-05 18:11 | 49.65538 | -2.22209 | 16702 ft | 349 kts | 196° |
| 2026-05-05 18:12 | 49.63244 | -2.23278 | 16253 ft | 348 kts | 196° |
| 2026-05-05 18:12 | 49.60899 | -2.24376 | 15791 ft | 347 kts | 196° |
| 2026-05-05 18:12 | 49.58593 | -2.25439 | 15341 ft | 346 kts | 196° |
| 2026-05-05 18:12 | 49.56308 | -2.26475 | 14888 ft | 345 kts | 196° |
| 2026-05-05 18:13 | 49.54000 | -2.27507 | 14422 ft | 345 kts | 195° |
| 2026-05-05 18:13 | 49.51691 | -2.28535 | 13972 ft | 344 kts | 195° |
| 2026-05-05 18:13 | 49.49352 | -2.29215 | 13474 ft | 342 kts | 179° |
| 2026-05-05 18:13 | 49.47039 | -2.28581 | 12968 ft | 337 kts | 156° |
| 2026-05-05 18:14 | 49.45058 | -2.26727 | 12471 ft | 333 kts | 140° |
| 2026-05-05 18:14 | 49.43254 | -2.24512 | 11979 ft | 331 kts | 138° |
| 2026-05-05 18:14 | 49.41602 | -2.22043 | 11431 ft | 330 kts | 129° |
| 2026-05-05 18:14 | 49.40108 | -2.19351 | 10810 ft | 332 kts | 128° |
| 2026-05-05 18:15 | 49.38734 | -2.16488 | 10187 ft | 332 kts | 115° |
| 2026-05-05 18:15 | 49.37863 | -2.13229 | 9560 ft | 331 kts | 108° |
| 2026-05-05 18:15 | 49.37083 | -2.09895 | 8892 ft | 331 kts | 108° |
| 2026-05-05 18:15 | 49.36299 | -2.06549 | 8142 ft | 334 kts | 108° |
| 2026-05-05 18:16 | 49.35504 | -2.03200 | 7380 ft | 336 kts | 108° |
| 2026-05-05 18:16 | 49.34701 | -1.99817 | 6616 ft | 337 kts | 108° |
| 2026-05-05 18:16 | 49.33910 | -1.96522 | 6089 ft | 329 kts | 108° |
| 2026-05-05 18:16 | 49.33102 | -1.93348 | 5531 ft | 309 kts | 113° |
| 2026-05-05 18:17 | 49.31814 | -1.90824 | 5002 ft | 299 kts | 138° |
| 2026-05-05 18:17 | 49.29996 | -1.89372 | 4272 ft | 297 kts | 163° |
| 2026-05-05 18:17 | 49.27943 | -1.89238 | 3471 ft | 296 kts | 190° |
| 2026-05-05 18:17 | 49.26064 | -1.90417 | 2674 ft | 290 kts | 217° |
| 2026-05-05 18:18 | 49.24715 | -1.92594 | 2141 ft | 272 kts | 240° |
| 2026-05-05 18:18 | 49.23729 | -1.94905 | 2006 ft | 246 kts | 239° |
| 2026-05-05 18:18 | 49.22889 | -1.97102 | 2002 ft | 236 kts | 254° |
| 2026-05-05 18:18 | 49.22488 | -1.99498 | 2009 ft | 230 kts | 264° |
| 2026-05-05 18:19 | 49.22246 | -2.01914 | 2004 ft | 230 kts | 266° |
| 2026-05-05 18:19 | 49.22047 | -2.04345 | 2001 ft | 230 kts | 268° |
| 2026-05-05 18:19 | 49.21850 | -2.06764 | 1817 ft | 225 kts | 268° |
| 2026-05-05 18:19 | 49.21663 | -2.09032 | 1553 ft | 212 kts | 267° |
| 2026-05-05 18:20 | 49.21485 | -2.11185 | 1291 ft | 199 kts | 268° |
| 2026-05-05 18:20 | 49.21318 | -2.13193 | 1024 ft | 182 kts | 268° |
| 2026-05-05 18:20 | 49.21166 | -2.15024 | 771 ft | 166 kts | 268° |
| 2026-05-05 18:20 | 49.21027 | -2.16706 | 572 ft | 152 kts | 268° |
| 2026-05-05 18:21 | 49.20900 | -2.18262 | 328 ft | 143 kts | 268° |
| 2026-05-05 18:21 | 49.20796 | -2.19625 | 284 ft | 104 kts | 262° |
| 2026-05-05 18:21 | 49.20737 | -2.20285 | 281 ft | 35 kts | 264° |
| 2026-05-05 18:21 | 49.20707 | -2.20617 | 280 ft | 18 kts | 254° |
| 2026-05-05 18:22 | 49.20630 | -2.20653 | 284 ft | 14 kts | 113° |
| 2026-05-05 18:22 | 49.20623 | -2.20529 | 280 ft | 6 kts | 99° |
| 2026-05-05 18:22 | 49.20611 | -2.20467 | 281 ft | 6 kts | 108° |
| 2026-05-05 18:22 | 49.20598 | -2.20405 | 280 ft | 6 kts | 108° |
| 2026-05-05 18:23 | 49.20586 | -2.20349 | 281 ft | 5 kts | 106° |
| 2026-05-05 18:23 | 49.20574 | -2.20279 | 286 ft | 8 kts | 104° |
| 2026-05-05 18:23 | 49.20560 | -2.20203 | 284 ft | 8 kts | 106° |
| 2026-05-05 18:23 | 49.20538 | -2.20089 | 281 ft | 14 kts | 107° |
| 2026-05-05 18:24 | 49.20518 | -2.19977 | 280 ft | 10 kts | 101° |
| 2026-05-05 18:24 | 49.20471 | -2.19921 | 280 ft | 9 kts | 172° |
| 2026-05-05 18:24 | 49.20434 | -2.19869 | 280 ft | 7 kts | 98° |
| 2026-05-05 18:24 | 49.20437 | -2.19792 | 280 ft | 7 kts | 83° |
| 2026-05-05 18:25 | 49.20442 | -2.19724 | 280 ft | 6 kts | 83° |
| 2026-05-05 18:25 | 49.20450 | -2.19684 | 284 ft | 5 kts | 57° |
| 2026-05-05 18:25 | 49.20498 | -2.19676 | 280 ft | 1 kts | 0° |
| 2026-05-05 18:25 | 49.20501 | -2.19676 | 280 ft | 0 kts | 1° |